sensor_id;sensor_type;location;lat;lon;timestamp;P1;durP1;ratioP1;P2;durP2;ratioP2
26106;SDS011;13866;50.748;12.630;2023-06-24T00:02:01;11.37;;;10.40;;
26106;SDS011;13866;50.748;12.630;2023-06-24T00:04:27;11.17;;;10.63;;
26106;SDS011;13866;50.748;12.630;2023-06-24T00:06:52;10.60;;;9.60;;
26106;SDS011;13866;50.748;12.630;2023-06-24T00:09:18;19.40;;;9.83;;
26106;SDS011;13866;50.748;12.630;2023-06-24T00:11:43;10.23;;;9.63;;
26106;SDS011;13866;50.748;12.630;2023-06-24T00:14:09;11.03;;;10.23;;
26106;SDS011;13866;50.748;12.630;2023-06-24T00:16:35;10.90;;;10.30;;
26106;SDS011;13866;50.748;12.630;2023-06-24T00:19:01;11.73;;;10.80;;
26106;SDS011;13866;50.748;12.630;2023-06-24T00:21:27;10.60;;;10.00;;
26106;SDS011;13866;50.748;12.630;2023-06-24T00:23:59;11.07;;;10.23;;
26106;SDS011;13866;50.748;12.630;2023-06-24T00:26:29;11.80;;;10.77;;
26106;SDS011;13866;50.748;12.630;2023-06-24T00:28:55;11.80;;;10.90;;
26106;SDS011;13866;50.748;12.630;2023-06-24T00:31:20;14.13;;;11.17;;
26106;SDS011;13866;50.748;12.630;2023-06-24T00:33:46;13.73;;;12.30;;
26106;SDS011;13866;50.748;12.630;2023-06-24T00:36:11;12.43;;;11.47;;
26106;SDS011;13866;50.748;12.630;2023-06-24T00:38:37;13.50;;;10.70;;
26106;SDS011;13866;50.748;12.630;2023-06-24T00:41:04;13.20;;;12.00;;
26106;SDS011;13866;50.748;12.630;2023-06-24T00:43:29;11.77;;;10.87;;
26106;SDS011;13866;50.748;12.630;2023-06-24T00:45:55;13.20;;;12.00;;
26106;SDS011;13866;50.748;12.630;2023-06-24T00:48:21;11.13;;;10.37;;
26106;SDS011;13866;50.748;12.630;2023-06-24T00:50:47;12.07;;;11.00;;
26106;SDS011;13866;50.748;12.630;2023-06-24T00:53:14;11.90;;;11.17;;
26106;SDS011;13866;50.748;12.630;2023-06-24T00:55:40;13.17;;;12.07;;
26106;SDS011;13866;50.748;12.630;2023-06-24T00:58:06;13.83;;;12.70;;
26106;SDS011;13866;50.748;12.630;2023-06-24T01:00:32;12.90;;;12.00;;
26106;SDS011;13866;50.748;12.630;2023-06-24T01:02:59;16.97;;;15.13;;
26106;SDS011;13866;50.748;12.630;2023-06-24T01:05:25;13.40;;;12.30;;
26106;SDS011;13866;50.748;12.630;2023-06-24T01:07:52;23.40;;;13.20;;
26106;SDS011;13866;50.748;12.630;2023-06-24T01:10:20;15.83;;;12.80;;
26106;SDS011;13866;50.748;12.630;2023-06-24T01:12:47;14.87;;;13.57;;
26106;SDS011;13866;50.748;12.630;2023-06-24T01:15:13;19.00;;;12.03;;
26106;SDS011;13866;50.748;12.630;2023-06-24T01:17:46;15.23;;;12.80;;
26106;SDS011;13866;50.748;12.630;2023-06-24T01:23:28;14.00;;;12.87;;
26106;SDS011;13866;50.748;12.630;2023-06-24T01:31:37;19.03;;;14.87;;
26106;SDS011;13866;50.748;12.630;2023-06-24T01:36:42;18.60;;;15.10;;
26106;SDS011;13866;50.748;12.630;2023-06-24T01:39:24;16.63;;;13.67;;
26106;SDS011;13866;50.748;12.630;2023-06-24T01:41:54;16.27;;;14.60;;
26106;SDS011;13866;50.748;12.630;2023-06-24T01:44:25;27.43;;;14.50;;
26106;SDS011;13866;50.748;12.630;2023-06-24T01:46:54;15.97;;;14.10;;
26106;SDS011;13866;50.748;12.630;2023-06-24T01:49:22;17.43;;;14.73;;
26106;SDS011;13866;50.748;12.630;2023-06-24T01:51:52;16.17;;;14.70;;
26106;SDS011;13866;50.748;12.630;2023-06-24T01:54:20;15.03;;;13.53;;
26106;SDS011;13866;50.748;12.630;2023-06-24T01:56:49;14.67;;;13.17;;
26106;SDS011;13866;50.748;12.630;2023-06-24T01:59:16;15.37;;;13.87;;
26106;SDS011;13866;50.748;12.630;2023-06-24T02:01:43;25.60;;;14.73;;
26106;SDS011;13866;50.748;12.630;2023-06-24T02:04:10;16.43;;;14.83;;
26106;SDS011;13866;50.748;12.630;2023-06-24T02:06:38;20.33;;;13.47;;
26106;SDS011;13866;50.748;12.630;2023-06-24T02:09:05;15.80;;;14.23;;
26106;SDS011;13866;50.748;12.630;2023-06-24T02:11:31;17.53;;;15.17;;
26106;SDS011;13866;50.748;12.630;2023-06-24T02:13:59;16.27;;;14.03;;
26106;SDS011;13866;50.748;12.630;2023-06-24T02:16:26;16.67;;;15.17;;
26106;SDS011;13866;50.748;12.630;2023-06-24T02:18:53;16.37;;;14.93;;
26106;SDS011;13866;50.748;12.630;2023-06-24T02:21:20;16.40;;;15.10;;
26106;SDS011;13866;50.748;12.630;2023-06-24T02:23:47;20.80;;;15.20;;
26106;SDS011;13866;50.748;12.630;2023-06-24T02:26:13;27.50;;;14.23;;
26106;SDS011;13866;50.748;12.630;2023-06-24T02:28:40;16.40;;;14.40;;
26106;SDS011;13866;50.748;12.630;2023-06-24T02:31:07;16.00;;;13.70;;
26106;SDS011;13866;50.748;12.630;2023-06-24T02:33:34;15.77;;;14.27;;
26106;SDS011;13866;50.748;12.630;2023-06-24T02:36:00;20.23;;;12.87;;
26106;SDS011;13866;50.748;12.630;2023-06-24T02:38:26;15.67;;;14.40;;
26106;SDS011;13866;50.748;12.630;2023-06-24T02:40:51;15.53;;;14.23;;
26106;SDS011;13866;50.748;12.630;2023-06-24T02:43:17;15.33;;;13.83;;
26106;SDS011;13866;50.748;12.630;2023-06-24T02:45:42;17.77;;;15.13;;
26106;SDS011;13866;50.748;12.630;2023-06-24T02:48:09;16.70;;;15.07;;
26106;SDS011;13866;50.748;12.630;2023-06-24T02:50:36;17.13;;;15.30;;
26106;SDS011;13866;50.748;12.630;2023-06-24T02:53:03;16.53;;;14.30;;
26106;SDS011;13866;50.748;12.630;2023-06-24T02:55:30;15.93;;;14.40;;
26106;SDS011;13866;50.748;12.630;2023-06-24T02:57:56;17.50;;;13.53;;
26106;SDS011;13866;50.748;12.630;2023-06-24T03:00:23;16.40;;;14.80;;
26106;SDS011;13866;50.748;12.630;2023-06-24T03:02:48;12.93;;;11.93;;
26106;SDS011;13866;50.748;12.630;2023-06-24T03:05:15;14.17;;;13.03;;
26106;SDS011;13866;50.748;12.630;2023-06-24T03:07:41;15.80;;;14.20;;
26106;SDS011;13866;50.748;12.630;2023-06-24T03:10:07;20.10;;;12.87;;
26106;SDS011;13866;50.748;12.630;2023-06-24T03:12:33;16.83;;;14.70;;
26106;SDS011;13866;50.748;12.630;2023-06-24T03:14:59;13.70;;;12.43;;
26106;SDS011;13866;50.748;12.630;2023-06-24T03:17:26;13.03;;;12.23;;
26106;SDS011;13866;50.748;12.630;2023-06-24T03:19:51;17.47;;;15.50;;
26106;SDS011;13866;50.748;12.630;2023-06-24T03:22:17;20.33;;;13.80;;
26106;SDS011;13866;50.748;12.630;2023-06-24T03:24:43;15.40;;;13.80;;
26106;SDS011;13866;50.748;12.630;2023-06-24T03:27:08;20.67;;;12.27;;
26106;SDS011;13866;50.748;12.630;2023-06-24T03:29:34;14.50;;;13.20;;
26106;SDS011;13866;50.748;12.630;2023-06-24T03:32:00;12.93;;;11.93;;
26106;SDS011;13866;50.748;12.630;2023-06-24T03:34:25;14.00;;;12.90;;
26106;SDS011;13866;50.748;12.630;2023-06-24T03:36:52;14.13;;;13.13;;
26106;SDS011;13866;50.748;12.630;2023-06-24T03:39:19;14.57;;;13.17;;
26106;SDS011;13866;50.748;12.630;2023-06-24T03:41:44;15.03;;;13.47;;
26106;SDS011;13866;50.748;12.630;2023-06-24T03:44:10;22.60;;;14.80;;
26106;SDS011;13866;50.748;12.630;2023-06-24T03:46:35;14.17;;;13.07;;
26106;SDS011;13866;50.748;12.630;2023-06-24T03:49:01;14.27;;;12.97;;
26106;SDS011;13866;50.748;12.630;2023-06-24T03:51:26;13.27;;;12.40;;
26106;SDS011;13866;50.748;12.630;2023-06-24T03:53:52;13.80;;;12.60;;
26106;SDS011;13866;50.748;12.630;2023-06-24T03:56:17;12.53;;;11.53;;
26106;SDS011;13866;50.748;12.630;2023-06-24T03:58:43;12.50;;;11.40;;
26106;SDS011;13866;50.748;12.630;2023-06-24T04:01:09;15.63;;;13.73;;
26106;SDS011;13866;50.748;12.630;2023-06-24T04:03:35;13.30;;;12.23;;
26106;SDS011;13866;50.748;12.630;2023-06-24T04:06:00;13.40;;;12.30;;
26106;SDS011;13866;50.748;12.630;2023-06-24T04:08:29;12.43;;;11.63;;
26106;SDS011;13866;50.748;12.630;2023-06-24T04:10:55;14.30;;;12.37;;
26106;SDS011;13866;50.748;12.630;2023-06-24T04:13:21;15.50;;;14.10;;
26106;SDS011;13866;50.748;12.630;2023-06-24T04:15:47;15.13;;;14.03;;
26106;SDS011;13866;50.748;12.630;2023-06-24T04:18:12;14.80;;;13.23;;
26106;SDS011;13866;50.748;12.630;2023-06-24T04:20:39;19.50;;;14.27;;
26106;SDS011;13866;50.748;12.630;2023-06-24T04:23:04;13.20;;;12.30;;
26106;SDS011;13866;50.748;12.630;2023-06-24T04:25:31;14.80;;;13.47;;
26106;SDS011;13866;50.748;12.630;2023-06-24T04:27:56;13.80;;;12.90;;
26106;SDS011;13866;50.748;12.630;2023-06-24T04:30:22;16.90;;;15.20;;
26106;SDS011;13866;50.748;12.630;2023-06-24T04:32:48;22.83;;;12.83;;
26106;SDS011;13866;50.748;12.630;2023-06-24T04:35:13;16.70;;;15.07;;
26106;SDS011;13866;50.748;12.630;2023-06-24T04:37:39;19.47;;;15.03;;
26106;SDS011;13866;50.748;12.630;2023-06-24T04:40:04;16.17;;;14.50;;
26106;SDS011;13866;50.748;12.630;2023-06-24T04:42:31;17.20;;;15.67;;
26106;SDS011;13866;50.748;12.630;2023-06-24T04:44:56;17.23;;;15.57;;
26106;SDS011;13866;50.748;12.630;2023-06-24T04:47:21;19.00;;;14.37;;
26106;SDS011;13866;50.748;12.630;2023-06-24T04:49:47;20.00;;;14.03;;
26106;SDS011;13866;50.748;12.630;2023-06-24T04:52:13;17.77;;;15.80;;
26106;SDS011;13866;50.748;12.630;2023-06-24T04:54:39;19.67;;;16.13;;
26106;SDS011;13866;50.748;12.630;2023-06-24T04:57:06;19.60;;;17.90;;
26106;SDS011;13866;50.748;12.630;2023-06-24T04:59:33;20.63;;;15.67;;
26106;SDS011;13866;50.748;12.630;2023-06-24T05:01:59;17.23;;;15.50;;
26106;SDS011;13866;50.748;12.630;2023-06-24T05:04:24;19.57;;;15.70;;
26106;SDS011;13866;50.748;12.630;2023-06-24T05:06:50;18.93;;;15.90;;
26106;SDS011;13866;50.748;12.630;2023-06-24T05:09:15;17.07;;;15.57;;
26106;SDS011;13866;50.748;12.630;2023-06-24T05:11:41;17.77;;;16.03;;
26106;SDS011;13866;50.748;12.630;2023-06-24T05:14:06;15.87;;;14.13;;
26106;SDS011;13866;50.748;12.630;2023-06-24T05:16:32;18.93;;;15.60;;
26106;SDS011;13866;50.748;12.630;2023-06-24T05:18:58;17.77;;;14.90;;
26106;SDS011;13866;50.748;12.630;2023-06-24T05:21:23;18.20;;;15.37;;
26106;SDS011;13866;50.748;12.630;2023-06-24T05:23:49;19.00;;;14.43;;
26106;SDS011;13866;50.748;12.630;2023-06-24T05:26:14;17.97;;;16.07;;
26106;SDS011;13866;50.748;12.630;2023-06-24T05:28:40;18.10;;;16.30;;
26106;SDS011;13866;50.748;12.630;2023-06-24T05:31:05;19.80;;;17.70;;
26106;SDS011;13866;50.748;12.630;2023-06-24T05:33:31;21.50;;;19.33;;
26106;SDS011;13866;50.748;12.630;2023-06-24T05:35:56;20.77;;;18.30;;
26106;SDS011;13866;50.748;12.630;2023-06-24T05:38:22;25.57;;;17.63;;
26106;SDS011;13866;50.748;12.630;2023-06-24T05:40:47;18.67;;;16.83;;
26106;SDS011;13866;50.748;12.630;2023-06-24T05:43:13;26.80;;;20.70;;
26106;SDS011;13866;50.748;12.630;2023-06-24T05:45:38;23.50;;;20.30;;
26106;SDS011;13866;50.748;12.630;2023-06-24T05:48:04;35.77;;;22.47;;
26106;SDS011;13866;50.748;12.630;2023-06-24T05:50:29;26.03;;;22.40;;
26106;SDS011;13866;50.748;12.630;2023-06-24T05:52:55;26.73;;;24.10;;
26106;SDS011;13866;50.748;12.630;2023-06-24T05:55:21;28.53;;;25.63;;
26106;SDS011;13866;50.748;12.630;2023-06-24T05:57:46;29.23;;;26.03;;
26106;SDS011;13866;50.748;12.630;2023-06-24T06:00:12;37.23;;;28.33;;
26106;SDS011;13866;50.748;12.630;2023-06-24T06:02:38;37.93;;;30.20;;
26106;SDS011;13866;50.748;12.630;2023-06-24T06:05:03;38.63;;;31.90;;
26106;SDS011;13866;50.748;12.630;2023-06-24T06:07:29;39.93;;;35.80;;
26106;SDS011;13866;50.748;12.630;2023-06-24T06:09:55;40.53;;;34.23;;
26106;SDS011;13866;50.748;12.630;2023-06-24T06:12:20;35.60;;;31.97;;
26106;SDS011;13866;50.748;12.630;2023-06-24T06:14:46;39.10;;;30.80;;
26106;SDS011;13866;50.748;12.630;2023-06-24T06:17:11;39.57;;;31.00;;
26106;SDS011;13866;50.748;12.630;2023-06-24T06:19:38;32.60;;;29.07;;
26106;SDS011;13866;50.748;12.630;2023-06-24T06:22:06;35.40;;;30.80;;
26106;SDS011;13866;50.748;12.630;2023-06-24T06:24:32;33.00;;;29.40;;
26106;SDS011;13866;50.748;12.630;2023-06-24T06:26:57;29.10;;;26.07;;
26106;SDS011;13866;50.748;12.630;2023-06-24T06:29:24;28.80;;;25.27;;
26106;SDS011;13866;50.748;12.630;2023-06-24T06:31:49;32.67;;;26.60;;
26106;SDS011;13866;50.748;12.630;2023-06-24T06:34:14;40.10;;;25.07;;
26106;SDS011;13866;50.748;12.630;2023-06-24T06:36:40;25.40;;;22.80;;
26106;SDS011;13866;50.748;12.630;2023-06-24T06:39:05;34.90;;;24.60;;
26106;SDS011;13866;50.748;12.630;2023-06-24T06:41:31;37.13;;;26.13;;
26106;SDS011;13866;50.748;12.630;2023-06-24T06:43:56;26.63;;;23.87;;
26106;SDS011;13866;50.748;12.630;2023-06-24T06:46:22;32.27;;;21.60;;
26106;SDS011;13866;50.748;12.630;2023-06-24T06:48:48;28.97;;;23.70;;
26106;SDS011;13866;50.748;12.630;2023-06-24T06:51:13;25.60;;;22.80;;
26106;SDS011;13866;50.748;12.630;2023-06-24T06:53:39;34.90;;;24.07;;
26106;SDS011;13866;50.748;12.630;2023-06-24T06:56:04;24.80;;;22.13;;
26106;SDS011;13866;50.748;12.630;2023-06-24T06:58:30;28.33;;;25.80;;
26106;SDS011;13866;50.748;12.630;2023-06-24T07:00:55;26.30;;;23.90;;
26106;SDS011;13866;50.748;12.630;2023-06-24T07:03:26;27.60;;;24.73;;
26106;SDS011;13866;50.748;12.630;2023-06-24T07:05:52;29.17;;;25.90;;
26106;SDS011;13866;50.748;12.630;2023-06-24T07:08:18;27.07;;;24.57;;
26106;SDS011;13866;50.748;12.630;2023-06-24T07:10:43;29.97;;;24.20;;
26106;SDS011;13866;50.748;12.630;2023-06-24T07:13:09;26.37;;;23.80;;
26106;SDS011;13866;50.748;12.630;2023-06-24T07:15:35;26.40;;;24.17;;
26106;SDS011;13866;50.748;12.630;2023-06-24T07:18:00;28.20;;;25.47;;
26106;SDS011;13866;50.748;12.630;2023-06-24T07:20:26;24.67;;;22.47;;
26106;SDS011;13866;50.748;12.630;2023-06-24T07:22:51;22.70;;;20.70;;
26106;SDS011;13866;50.748;12.630;2023-06-24T07:25:17;25.90;;;23.33;;
26106;SDS011;13866;50.748;12.630;2023-06-24T07:27:42;22.77;;;20.53;;
26106;SDS011;13866;50.748;12.630;2023-06-24T07:30:08;25.57;;;19.77;;
26106;SDS011;13866;50.748;12.630;2023-06-24T07:32:33;19.23;;;17.30;;
26106;SDS011;13866;50.748;12.630;2023-06-24T07:34:59;18.73;;;16.57;;
26106;SDS011;13866;50.748;12.630;2023-06-24T07:37:24;18.03;;;16.20;;
26106;SDS011;13866;50.748;12.630;2023-06-24T07:39:50;19.20;;;17.20;;
26106;SDS011;13866;50.748;12.630;2023-06-24T07:42:16;17.77;;;16.10;;
26106;SDS011;13866;50.748;12.630;2023-06-24T07:44:44;17.67;;;15.80;;
26106;SDS011;13866;50.748;12.630;2023-06-24T07:47:10;16.60;;;15.10;;
26106;SDS011;13866;50.748;12.630;2023-06-24T07:49:36;16.93;;;15.73;;
26106;SDS011;13866;50.748;12.630;2023-06-24T07:52:01;21.03;;;14.00;;
26106;SDS011;13866;50.748;12.630;2023-06-24T07:54:27;16.23;;;14.80;;
26106;SDS011;13866;50.748;12.630;2023-06-24T07:56:52;18.60;;;14.43;;
26106;SDS011;13866;50.748;12.630;2023-06-24T07:59:18;14.13;;;12.90;;
26106;SDS011;13866;50.748;12.630;2023-06-24T08:01:43;17.40;;;15.60;;
26106;SDS011;13866;50.748;12.630;2023-06-24T08:04:09;16.63;;;15.00;;
26106;SDS011;13866;50.748;12.630;2023-06-24T08:06:34;11.83;;;10.73;;
26106;SDS011;13866;50.748;12.630;2023-06-24T08:09:00;11.80;;;10.90;;
26106;SDS011;13866;50.748;12.630;2023-06-24T08:11:25;11.53;;;10.90;;
26106;SDS011;13866;50.748;12.630;2023-06-24T08:13:51;14.27;;;12.30;;
26106;SDS011;13866;50.748;12.630;2023-06-24T08:16:16;12.83;;;11.17;;
26106;SDS011;13866;50.748;12.630;2023-06-24T08:18:43;18.47;;;11.50;;
26106;SDS011;13866;50.748;12.630;2023-06-24T08:21:09;11.73;;;11.10;;
26106;SDS011;13866;50.748;12.630;2023-06-24T08:23:34;12.03;;;11.10;;
26106;SDS011;13866;50.748;12.630;2023-06-24T08:26:00;13.47;;;12.17;;
26106;SDS011;13866;50.748;12.630;2023-06-24T08:28:25;12.57;;;11.53;;
26106;SDS011;13866;50.748;12.630;2023-06-24T08:30:51;13.27;;;12.00;;
26106;SDS011;13866;50.748;12.630;2023-06-24T08:33:16;11.97;;;10.97;;
26106;SDS011;13866;50.748;12.630;2023-06-24T08:35:42;11.00;;;10.10;;
26106;SDS011;13866;50.748;12.630;2023-06-24T08:38:07;10.33;;;9.60;;
26106;SDS011;13866;50.748;12.630;2023-06-24T08:40:33;12.90;;;9.63;;
26106;SDS011;13866;50.748;12.630;2023-06-24T08:42:59;14.30;;;10.53;;
26106;SDS011;13866;50.748;12.630;2023-06-24T08:45:24;12.10;;;9.10;;
26106;SDS011;13866;50.748;12.630;2023-06-24T08:47:50;8.60;;;8.10;;
26106;SDS011;13866;50.748;12.630;2023-06-24T08:50:17;9.10;;;7.50;;
26106;SDS011;13866;50.748;12.630;2023-06-24T08:52:53;8.30;;;7.60;;
26106;SDS011;13866;50.748;12.630;2023-06-24T08:55:21;7.87;;;7.47;;
26106;SDS011;13866;50.748;12.630;2023-06-24T08:57:52;8.67;;;8.30;;
26106;SDS011;13866;50.748;12.630;2023-06-24T09:00:18;10.10;;;9.07;;
26106;SDS011;13866;50.748;12.630;2023-06-24T09:02:43;8.27;;;8.03;;
26106;SDS011;13866;50.748;12.630;2023-06-24T09:05:10;7.53;;;7.20;;
26106;SDS011;13866;50.748;12.630;2023-06-24T09:07:36;7.30;;;6.80;;
26106;SDS011;13866;50.748;12.630;2023-06-24T09:10:02;7.43;;;6.83;;
26106;SDS011;13866;50.748;12.630;2023-06-24T09:12:28;7.40;;;7.00;;
26106;SDS011;13866;50.748;12.630;2023-06-24T09:14:56;8.33;;;7.60;;
26106;SDS011;13866;50.748;12.630;2023-06-24T09:17:22;7.87;;;7.30;;
26106;SDS011;13866;50.748;12.630;2023-06-24T09:19:50;7.27;;;6.80;;
26106;SDS011;13866;50.748;12.630;2023-06-24T09:22:16;7.70;;;6.63;;
26106;SDS011;13866;50.748;12.630;2023-06-24T09:24:45;6.03;;;5.73;;
26106;SDS011;13866;50.748;12.630;2023-06-24T09:27:12;5.37;;;5.07;;
26106;SDS011;13866;50.748;12.630;2023-06-24T09:29:39;5.87;;;5.60;;
26106;SDS011;13866;50.748;12.630;2023-06-24T09:32:06;8.73;;;6.53;;
26106;SDS011;13866;50.748;12.630;2023-06-24T09:34:32;6.07;;;5.87;;
26106;SDS011;13866;50.748;12.630;2023-06-24T09:36:58;5.47;;;5.17;;
26106;SDS011;13866;50.748;12.630;2023-06-24T09:39:24;6.50;;;6.13;;
26106;SDS011;13866;50.748;12.630;2023-06-24T09:41:57;8.63;;;6.30;;
26106;SDS011;13866;50.748;12.630;2023-06-24T09:44:25;6.27;;;5.70;;
26106;SDS011;13866;50.748;12.630;2023-06-24T09:46:51;5.87;;;5.67;;
26106;SDS011;13866;50.748;12.630;2023-06-24T09:49:17;7.00;;;6.50;;
26106;SDS011;13866;50.748;12.630;2023-06-24T09:51:44;7.97;;;5.40;;
26106;SDS011;13866;50.748;12.630;2023-06-24T09:54:11;6.53;;;6.20;;
26106;SDS011;13866;50.748;12.630;2023-06-24T09:56:39;5.30;;;5.00;;
26106;SDS011;13866;50.748;12.630;2023-06-24T09:59:12;6.60;;;6.30;;
26106;SDS011;13866;50.748;12.630;2023-06-24T10:01:39;5.73;;;5.43;;
26106;SDS011;13866;50.748;12.630;2023-06-24T10:04:05;6.03;;;5.83;;
26106;SDS011;13866;50.748;12.630;2023-06-24T10:06:32;6.60;;;5.87;;
26106;SDS011;13866;50.748;12.630;2023-06-24T10:08:58;5.90;;;5.70;;
26106;SDS011;13866;50.748;12.630;2023-06-24T10:11:25;5.60;;;5.30;;
26106;SDS011;13866;50.748;12.630;2023-06-24T10:13:51;7.47;;;6.97;;
26106;SDS011;13866;50.748;12.630;2023-06-24T10:16:17;6.47;;;6.20;;
26106;SDS011;13866;50.748;12.630;2023-06-24T10:18:43;6.83;;;6.43;;
26106;SDS011;13866;50.748;12.630;2023-06-24T10:21:10;6.40;;;6.00;;
26106;SDS011;13866;50.748;12.630;2023-06-24T10:23:40;13.73;;;6.00;;
26106;SDS011;13866;50.748;12.630;2023-06-24T10:26:08;6.73;;;6.27;;
26106;SDS011;13866;50.748;12.630;2023-06-24T10:37:02;5.43;;;5.13;;
26106;SDS011;13866;50.748;12.630;2023-06-24T10:42:19;5.30;;;5.10;;
26106;SDS011;13866;50.748;12.630;2023-06-24T10:44:48;5.77;;;5.10;;
26106;SDS011;13866;50.748;12.630;2023-06-24T10:47:14;6.13;;;5.73;;
26106;SDS011;13866;50.748;12.630;2023-06-24T10:49:39;6.03;;;5.73;;
26106;SDS011;13866;50.748;12.630;2023-06-24T10:52:11;5.93;;;5.70;;
26106;SDS011;13866;50.748;12.630;2023-06-24T10:54:37;5.77;;;5.47;;
26106;SDS011;13866;50.748;12.630;2023-06-24T10:57:03;6.63;;;6.13;;
26106;SDS011;13866;50.748;12.630;2023-06-24T10:59:39;6.83;;;6.23;;
26106;SDS011;13866;50.748;12.630;2023-06-24T11:02:18;5.93;;;5.57;;
26106;SDS011;13866;50.748;12.630;2023-06-24T11:04:45;6.53;;;6.10;;
26106;SDS011;13866;50.748;12.630;2023-06-24T11:07:12;5.70;;;5.50;;
26106;SDS011;13866;50.748;12.630;2023-06-24T11:09:38;5.90;;;5.60;;
26106;SDS011;13866;50.748;12.630;2023-06-24T11:12:05;7.23;;;6.30;;
26106;SDS011;13866;50.748;12.630;2023-06-24T11:14:33;6.97;;;6.47;;
26106;SDS011;13866;50.748;12.630;2023-06-24T11:17:03;5.60;;;5.37;;
26106;SDS011;13866;50.748;12.630;2023-06-24T11:19:29;6.47;;;5.93;;
26106;SDS011;13866;50.748;12.630;2023-06-24T11:22:02;6.10;;;5.80;;
26106;SDS011;13866;50.748;12.630;2023-06-24T11:24:28;5.80;;;5.50;;
26106;SDS011;13866;50.748;12.630;2023-06-24T11:26:54;4.97;;;4.77;;
26106;SDS011;13866;50.748;12.630;2023-06-24T11:29:20;5.97;;;5.70;;
26106;SDS011;13866;50.748;12.630;2023-06-24T11:31:45;6.20;;;5.80;;
26106;SDS011;13866;50.748;12.630;2023-06-24T11:34:10;6.10;;;5.80;;
26106;SDS011;13866;50.748;12.630;2023-06-24T11:36:36;6.03;;;5.57;;
26106;SDS011;13866;50.748;12.630;2023-06-24T11:39:02;4.93;;;4.83;;
26106;SDS011;13866;50.748;12.630;2023-06-24T11:41:28;7.53;;;6.93;;
26106;SDS011;13866;50.748;12.630;2023-06-24T11:43:53;6.47;;;5.80;;
26106;SDS011;13866;50.748;12.630;2023-06-24T11:46:28;5.40;;;5.20;;
26106;SDS011;13866;50.748;12.630;2023-06-24T11:49:06;4.90;;;4.70;;
26106;SDS011;13866;50.748;12.630;2023-06-24T11:51:33;6.50;;;6.13;;
26106;SDS011;13866;50.748;12.630;2023-06-24T11:53:59;5.87;;;5.57;;
26106;SDS011;13866;50.748;12.630;2023-06-24T11:56:36;7.90;;;6.10;;
26106;SDS011;13866;50.748;12.630;2023-06-24T11:59:03;6.03;;;5.23;;
26106;SDS011;13866;50.748;12.630;2023-06-24T12:01:31;4.90;;;4.80;;
26106;SDS011;13866;50.748;12.630;2023-06-24T12:03:59;5.43;;;5.20;;
26106;SDS011;13866;50.748;12.630;2023-06-24T12:06:25;6.73;;;6.33;;
26106;SDS011;13866;50.748;12.630;2023-06-24T12:08:51;6.80;;;4.60;;
26106;SDS011;13866;50.748;12.630;2023-06-24T12:11:16;5.60;;;4.73;;
26106;SDS011;13866;50.748;12.630;2023-06-24T12:13:42;7.60;;;5.10;;
26106;SDS011;13866;50.748;12.630;2023-06-24T12:16:07;5.67;;;5.37;;
26106;SDS011;13866;50.748;12.630;2023-06-24T12:18:32;5.07;;;4.87;;
26106;SDS011;13866;50.748;12.630;2023-06-24T12:20:58;8.53;;;4.57;;
26106;SDS011;13866;50.748;12.630;2023-06-24T12:23:23;4.87;;;4.67;;
26106;SDS011;13866;50.748;12.630;2023-06-24T12:25:49;5.13;;;4.43;;
26106;SDS011;13866;50.748;12.630;2023-06-24T12:28:14;18.47;;;5.00;;
26106;SDS011;13866;50.748;12.630;2023-06-24T12:30:40;5.60;;;5.03;;
26106;SDS011;13866;50.748;12.630;2023-06-24T12:33:05;3.97;;;3.97;;
26106;SDS011;13866;50.748;12.630;2023-06-24T12:35:33;4.97;;;4.67;;
26106;SDS011;13866;50.748;12.630;2023-06-24T12:37:59;4.27;;;4.20;;
26106;SDS011;13866;50.748;12.630;2023-06-24T12:40:24;4.90;;;4.77;;
26106;SDS011;13866;50.748;12.630;2023-06-24T12:42:50;4.23;;;4.13;;
26106;SDS011;13866;50.748;12.630;2023-06-24T12:45:15;4.93;;;4.50;;
26106;SDS011;13866;50.748;12.630;2023-06-24T12:47:41;13.70;;;5.17;;
26106;SDS011;13866;50.748;12.630;2023-06-24T12:50:07;4.70;;;4.50;;
26106;SDS011;13866;50.748;12.630;2023-06-24T12:52:33;5.10;;;4.90;;
26106;SDS011;13866;50.748;12.630;2023-06-24T12:54:59;4.83;;;4.60;;
26106;SDS011;13866;50.748;12.630;2023-06-24T12:57:24;10.80;;;4.70;;
26106;SDS011;13866;50.748;12.630;2023-06-24T12:59:50;6.73;;;4.53;;
26106;SDS011;13866;50.748;12.630;2023-06-24T13:02:15;4.17;;;4.07;;
26106;SDS011;13866;50.748;12.630;2023-06-24T13:04:41;4.77;;;4.67;;
26106;SDS011;13866;50.748;12.630;2023-06-24T13:07:06;5.23;;;4.30;;
26106;SDS011;13866;50.748;12.630;2023-06-24T13:09:34;3.97;;;3.87;;
26106;SDS011;13866;50.748;12.630;2023-06-24T13:12:00;4.83;;;4.73;;
26106;SDS011;13866;50.748;12.630;2023-06-24T13:14:25;5.03;;;4.63;;
26106;SDS011;13866;50.748;12.630;2023-06-24T13:16:52;4.30;;;4.10;;
26106;SDS011;13866;50.748;12.630;2023-06-24T13:19:18;6.03;;;4.10;;
26106;SDS011;13866;50.748;12.630;2023-06-24T13:21:44;3.57;;;3.43;;
26106;SDS011;13866;50.748;12.630;2023-06-24T13:24:09;4.30;;;4.20;;
26106;SDS011;13866;50.748;12.630;2023-06-24T13:26:35;4.07;;;3.97;;
26106;SDS011;13866;50.748;12.630;2023-06-24T13:29:01;4.50;;;4.30;;
26106;SDS011;13866;50.748;12.630;2023-06-24T13:31:27;5.10;;;4.60;;
26106;SDS011;13866;50.748;12.630;2023-06-24T13:33:53;4.43;;;4.13;;
26106;SDS011;13866;50.748;12.630;2023-06-24T13:36:29;3.70;;;3.67;;
26106;SDS011;13866;50.748;12.630;2023-06-24T13:38:57;4.97;;;4.70;;
26106;SDS011;13866;50.748;12.630;2023-06-24T13:41:22;4.37;;;4.20;;
26106;SDS011;13866;50.748;12.630;2023-06-24T13:43:48;5.07;;;4.87;;
26106;SDS011;13866;50.748;12.630;2023-06-24T13:46:15;5.03;;;4.83;;
26106;SDS011;13866;50.748;12.630;2023-06-24T13:48:40;5.03;;;3.63;;
26106;SDS011;13866;50.748;12.630;2023-06-24T13:51:07;4.33;;;4.23;;
26106;SDS011;13866;50.748;12.630;2023-06-24T13:53:33;4.20;;;4.10;;
26106;SDS011;13866;50.748;12.630;2023-06-24T13:55:58;4.90;;;4.70;;
26106;SDS011;13866;50.748;12.630;2023-06-24T13:58:24;5.23;;;5.03;;
26106;SDS011;13866;50.748;12.630;2023-06-24T14:00:49;4.00;;;3.90;;
26106;SDS011;13866;50.748;12.630;2023-06-24T14:03:15;5.80;;;4.07;;
26106;SDS011;13866;50.748;12.630;2023-06-24T14:05:40;10.53;;;3.90;;
26106;SDS011;13866;50.748;12.630;2023-06-24T14:08:06;4.50;;;4.20;;
26106;SDS011;13866;50.748;12.630;2023-06-24T14:10:31;5.93;;;4.20;;
26106;SDS011;13866;50.748;12.630;2023-06-24T14:12:57;4.57;;;4.17;;
26106;SDS011;13866;50.748;12.630;2023-06-24T14:15:22;6.30;;;4.13;;
26106;SDS011;13866;50.748;12.630;2023-06-24T14:17:48;3.80;;;3.80;;
26106;SDS011;13866;50.748;12.630;2023-06-24T14:20:13;4.37;;;4.03;;
26106;SDS011;13866;50.748;12.630;2023-06-24T14:22:38;3.83;;;3.83;;
26106;SDS011;13866;50.748;12.630;2023-06-24T14:25:04;4.17;;;3.87;;
26106;SDS011;13866;50.748;12.630;2023-06-24T14:27:30;4.20;;;4.10;;
26106;SDS011;13866;50.748;12.630;2023-06-24T14:29:55;4.97;;;4.57;;
26106;SDS011;13866;50.748;12.630;2023-06-24T14:32:21;13.13;;;3.93;;
26106;SDS011;13866;50.748;12.630;2023-06-24T14:34:46;6.97;;;4.23;;
26106;SDS011;13866;50.748;12.630;2023-06-24T14:37:12;4.07;;;3.57;;